Latest Coastal Weather Observations for Lucinda

IDQ60701

Issued at 1:01 pm EST Sunday 19 April 2015 (issued every 10 minutes, with the page automatically refreshed every 10 minutes)

About coastal observations | Map of coastal stations | Coastal observations for QLD | Marine services | Other Formats
Station Details ID: 032141 Name: LUCINDA POINT Lat: -18.52 Lon: 146.39 Height: 10.0 m
Data from the previous 72 hours. | See also: Recent months for locations in Queensland
Date/Time
EST
Temp

°C
Wind Pressure Rain
since 9am
mm
Weather Cloud Vis
km
Sea
Height
m
Swell
Dir
 
Speed
knots
Gust
knots
hPa Trend Height
m
Period
s
Dir
19/01:00pm 28.2 SE 8 13 1014.8 - 0.2 - - - - - - -
19/12:30pm 27.7 S 10 13 1015.2 - 0.2 - - - - - - -
19/12:00pm 27.6 SSE 8 13 1015.8 - 0.2 - - - - - - -
19/11:30am 27.4 S 9 12 1016.3 - 0.2 - - - - - - -
19/11:00am 27.2 S 8 13 1016.7 - 0.2 - - - - - - -
19/10:30am 26.7 S 14 17 1016.8 - 0.2 - - - - - - -
19/10:00am 27.3 SSE 8 14 1016.8 - 0.0 - - - - - - -
19/09:30am 28.1 ESE 10 15 1016.3 - 0.0 - - - - - - -
19/09:00am 27.9 SE 11 18 1016.1 - 24.8 Recent precip. - - - - - -
19/08:30am 27.0 ESE 10 17 1015.9 - 24.8 - - - - - - -
19/08:00am 27.0 SE 10 15 1015.7 - 24.6 - - - - - - -
19/07:30am 27.5 ESE 9 15 1015.1 - 24.4 - - - - - - -
19/07:00am 26.4 SE 7 15 1014.7 - 24.4 - - - - - - -
19/06:30am 26.7 SE 9 17 1014.2 - 24.4 - - - - - - -
19/06:00am 26.0 SE 9 16 1013.9 - 24.4 - - - - - - -
19/05:30am 26.7 SE 11 18 1013.5 - 24.4 - - - - - - -
19/05:00am 26.5 ESE 10 17 1013.4 - 24.4 - - - - - - -
19/04:30am 26.4 SE 12 18 1013.2 - 24.4 - - - - - - -
19/04:00am 26.1 ESE 13 20 1013.1 - 24.4 - - - - - - -
19/03:30am 25.6 SE 10 17 1013.3 - 24.4 - - - - - - -
19/03:00am 25.6 SE 10 16 1013.6 - 23.8 Rain - - - - - -
19/02:30am 26.4 ESE 9 14 1013.9 - 23.4 - - - - - - -
19/02:00am 26.1 E 11 15 1014.3 - 23.4 - - - - - - -
19/01:43am 26.2 E 13 21 1014.4 - 23.2 - - - - - - -
19/01:30am 27.2 SE 8 11 1014.5 - 23.2 - - - - - - -
19/01:00am 26.9 ESE 9 16 1014.9 - 23.2 - - - - - - -
19/12:30am 26.7 SE 8 12 1015.2 - 23.2 - - - - - - -
19/12:00am 27.1 ESE 8 13 1015.3 - 23.2 - - - - - - -
 
Date/Time
EST
Temp

°C
Wind Pressure Rain
since 9am
mm
Weather Cloud Vis
km
Sea
Height
m
Swell
Dir
 
Speed
knots
Gust
knots
hPa Trend Height
m
Period
s
Dir
18/11:30pm 27.1 ESE 7 11 1015.6 - 23.2 - - - - - - -
18/11:00pm 27.2 ESE 9 14 1015.7 - 23.2 - - - - - - -
18/10:30pm 27.1 ESE 8 11 1015.8 - 23.2 - - - - - - -
18/10:00pm 26.5 ESE 11 16 1015.8 - 23.2 - - - - - - -
18/09:30pm 27.2 SE 10 17 1015.9 - 23.2 - - - - - - -
18/09:00pm 27.6 ESE 12 23 1015.9 - 23.2 - - - - - - -
18/08:30pm 27.3 ESE 10 16 1015.7 - 23.2 - - - - - - -
18/08:00pm 27.2 ESE 10 16 1015.1 - 23.2 - - - - - - -
18/07:30pm 27.0 ESE 10 15 1014.8 - 23.2 - - - - - - -
18/07:00pm 26.6 SE 11 17 1014.4 - 23.2 - - - - - - -
18/06:30pm 26.2 SE 11 19 1014.1 - 23.2 - - - - - - -
18/06:00pm 26.3 ESE 13 21 1013.8 - 23.2 - - - - - - -
18/05:30pm 26.6 SE 13 21 1013.6 - 23.2 - - - - - - -
18/05:00pm 26.3 SE 14 24 1013.4 - 23.2 - - - - - - -
18/04:30pm 26.3 SSE 9 14 1013.5 - 23.2 - - - - - - -
18/04:00pm 25.4 SSW 7 9 1013.4 - 23.2 - - - - - - -
18/03:30pm 25.4 SSE 9 13 1013.3 - 23.2 - - - - - - -
18/03:00pm 25.1 S 8 11 1013.5 - 16.0 Rain - - - - - -
18/02:30pm 24.8 S 9 12 1013.5 - 14.2 - - - - - - -
18/02:00pm 24.9 SE 10 18 1013.8 - 14.0 - - - - - - -
18/01:38pm 25.3 SE 11 26 1013.9 - 5.2 - - - - - - -
18/01:30pm 26.7 SSE 7 14 1013.9 - 3.0 - - - - - - -
18/01:00pm 26.6 SSE 9 14 1014.4 - 3.0 - - - - - - -
18/12:30pm 25.8 S 9 13 1014.8 - 3.0 - - - - - - -
18/12:00pm 24.7 S 9 16 1015.7 - 3.0 Rain - - - - - -
18/11:30am 26.0 S 16 19 1015.9 - 0.0 - - - - - - -
18/11:00am 25.8 S 18 21 1016.0 - 0.0 - - - - - - -
18/10:30am 25.1 S 16 19 1016.6 - 0.0 - - - - - - -
18/10:00am 25.7 S 16 19 1016.6 - 0.0 - - - - - - -
18/09:30am 25.0 S 17 20 1016.6 - 0.0 - - - - - - -
18/09:00am 25.5 S 16 19 1016.3 - 2.6 - - - - - - -
18/08:30am 25.7 S 17 21 1015.9 - 2.6 - - - - - - -
18/08:00am 25.1 S 15 21 1015.4 - 2.6 - - - - - - -
18/07:30am 25.5 S 11 16 1015.2 - 2.6 - - - - - - -
18/07:00am 25.8 SSE 9 14 1014.7 - 2.6 - - - - - - -
18/06:30am 25.2 S 10 18 1014.2 - 2.6 - - - - - - -
18/06:00am 24.9 S 9 13 1014.1 - 2.6 - - - - - - -
18/05:30am 25.0 SSE 9 14 1014.0 - 2.6 - - - - - - -
18/05:00am 25.1 SSE 10 14 1013.8 - 2.6 - - - - - - -
18/04:30am 24.6 SSE 10 17 1013.5 - 2.6 - - - - - - -
18/04:00am 24.3 SE 13 23 1013.5 - 2.2 - - - - - - -
18/03:30am 25.6 S 12 17 1013.5 - 0.0 - - - - - - -
18/03:00am 26.3 SE 14 21 1013.4 - 0.0 - - - - - - -
18/02:30am 26.9 ESE 13 19 1013.6 - 0.0 - - - - - - -
18/02:00am 26.9 SE 12 20 1013.9 - 0.0 - - - - - - -
18/01:30am 27.0 SE 11 19 1014.4 - 0.0 - - - - - - -
18/01:00am 27.0 SE 9 16 1014.9 - 0.0 - - - - - - -
18/12:30am 27.0 SE 11 17 1015.2 - 0.0 - - - - - - -
18/12:00am 27.0 SE 11 20 1015.4 - 0.0 - - - - - - -
 
Date/Time
EST
Temp

°C
Wind Pressure Rain
since 9am
mm
Weather Cloud Vis
km
Sea
Height
m
Swell
Dir
 
Speed
knots
Gust
knots
hPa Trend Height
m
Period
s
Dir
17/11:30pm 27.2 SE 11 23 1015.4 - 0.0 - - - - - - -
17/11:00pm 27.1 SE 11 18 1015.6 - 0.0 - - - - - - -
17/10:30pm 27.1 ESE 12 20 1015.4 - 0.0 - - - - - - -
17/10:00pm 27.2 SE 11 20 1015.6 - 0.0 - - - - - - -
17/09:30pm 27.1 ESE 11 20 1015.6 - 0.0 - - - - - - -
17/09:00pm 27.2 ESE 11 20 1015.6 - 0.0 - - - - - - -
17/08:30pm 26.8 ESE 11 18 1015.3 - 0.0 - - - - - - -
17/08:00pm 26.6 ESE 12 18 1015.0 - 0.0 - - - - - - -
17/07:30pm 26.8 ESE 9 15 1014.7 - 0.0 - - - - - - -
17/07:00pm 26.3 ESE 12 22 1014.5 - 0.0 - - - - - - -
17/06:30pm 26.8 ESE 12 20 1014.1 - 0.0 - - - - - - -
17/06:00pm 27.0 ESE 8 14 1013.9 - 0.0 - - - - - - -
17/05:30pm 27.3 SE 9 15 1013.8 - 0.0 - - - - - - -
17/05:00pm 27.5 SE 9 14 1013.7 - 0.0 - - - - - - -
17/04:30pm 27.4 SE 10 16 1013.5 - 0.0 - - - - - - -
17/04:00pm 27.5 SE 10 19 1013.3 - 0.0 - - - - - - -
17/03:30pm 27.7 SE 10 16 1013.3 - 0.0 - - - - - - -
17/03:00pm 27.7 SE 11 18 1013.4 - 0.0 - - - - - - -
17/02:30pm 27.8 SE 9 16 1013.8 - 0.0 - - - - - - -
17/02:00pm 27.6 SE 10 16 1014.1 - 0.0 - - - - - - -
17/01:30pm 27.3 SE 11 19 1014.5 - 0.0 - - - - - - -
17/01:00pm 27.1 SE 11 17 1015.0 - 0.0 - - - - - - -
17/12:30pm 27.0 SE 13 19 1015.4 - 0.0 - - - - - - -
17/12:00pm 27.1 SE 12 20 1016.0 - 0.0 - - - - - - -
17/11:30am 25.8 S 14 21 1016.6 - 0.0 - - - - - - -
17/11:00am 25.9 S 15 19 1017.1 - 0.0 - - - - - - -
17/10:30am 26.0 S 15 20 1017.4 - 0.0 - - - - - - -
17/10:00am 26.5 SE 13 21 1017.6 - 0.0 - - - - - - -
17/09:30am 26.4 SSE 9 16 1017.7 - 0.0 - - - - - - -
17/09:00am 26.3 S 9 13 1017.6 - 1.0 - - - - - - -
17/08:30am 25.9 S 11 17 1017.4 - 1.0 - - - - - - -
17/08:00am 26.2 S 10 13 1017.3 - 1.0 - - - - - - -
17/07:30am 25.9 S 13 19 1017.0 - 1.0 - - - - - - -
17/07:00am 25.7 S 14 20 1016.8 - 1.0 - - - - - - -
17/06:30am 25.6 S 12 18 1016.4 - 1.0 - - - - - - -
17/06:00am 25.5 S 14 19 1016.2 - 1.0 - - - - - - -
17/05:30am 25.4 S 14 21 1015.9 - 1.0 - - - - - - -
17/05:00am 25.6 SSE 11 20 1015.6 - 1.0 - - - - - - -
17/04:30am 25.7 SSE 9 13 1015.1 - 1.0 - - - - - - -
17/04:00am 25.5 S 8 11 1015.3 - 1.0 - - - - - - -
17/03:30am 25.3 S 9 14 1015.6 - 1.0 - - - - - - -
17/03:00am 25.0 S 19 24 1015.7 - 1.0 - - - - - - -
17/02:30am 26.1 SE 13 21 1015.8 - 1.0 - - - - - - -
17/02:08am 26.1 SE 15 25 1015.8 - 1.0 - - - - - - -
17/02:00am 26.2 ESE 12 24 1016.0 - 1.0 - - - - - - -
17/01:30am 26.5 ESE 12 22 1016.4 - 1.0 - - - - - - -
17/01:00am 26.7 SE 12 20 1016.8 - 1.0 - - - - - - -
17/12:30am 25.4 ESE 12 19 1017.3 - 1.0 - - - - - - -
17/12:07am 25.4 SE 16 26 1017.3 - 1.0 - - - - - - -
17/12:00am 25.9 SE 17 24 1017.3 - 1.0 Rain - - - - - -
 
Date/Time
EST
Temp

°C
Wind Pressure Rain
since 9am
mm
Weather Cloud Vis
km
Sea
Height
m
Swell
Dir
 
Speed
knots
Gust
knots
hPa Trend Height
m
Period
s
Dir
16/11:30pm 25.4 SE 11 23 1017.8 - 0.8 - - - - - - -
16/11:00pm 26.5 SE 14 21 1018.1 - 0.2 - - - - - - -
16/10:30pm 26.9 ESE 12 21 1018.1 - 0.2 - - - - - - -
16/10:00pm 25.8 SE 13 25 1018.5 - 0.2 - - - - - - -
16/09:31pm 26.4 SE 18 29 1018.3 - 0.2 - - - - - - -
16/09:30pm 26.6 SE 18 27 1018.2 - 0.2 - - - - - - -
16/09:19pm 26.8 ESE 17 27 1018.1 - 0.2 - - - - - - -
16/09:00pm 26.7 ESE 13 22 1018.2 - 0.2 - - - - - - -
16/08:38pm 27.2 SE 15 26 1018.0 - 0.2 - - - - - - -
16/08:30pm 27.1 ESE 13 23 1018.0 - 0.2 - - - - - - -
16/08:00pm 27.0 SE 14 20 1017.8 - 0.2 - - - - - - -
16/07:30pm 27.0 SE 14 21 1017.5 - 0.2 - - - - - - -
16/07:00pm 27.0 ESE 14 23 1017.1 - 0.2 - - - - - - -
16/06:30pm 27.2 SE 13 22 1017.0 - 0.2 - - - - - - -
16/06:00pm 27.1 SE 13 21 1016.7 - 0.2 - - - - - - -
16/05:30pm 27.4 ESE 12 19 1016.6 - 0.2 - - - - - - -
16/05:00pm 27.7 ESE 12 21 1016.4 - 0.2 - - - - - - -
16/04:30pm 27.0 ESE 12 18 1016.3 - 0.2 - - - - - - -
16/04:20pm 26.9 ESE 15 25 1016.3 - 0.2 - - - - - - -
16/04:00pm 27.5 SE 10 17 1016.2 - 0.2 - - - - - - -
16/03:30pm 27.5 SE 11 18 1016.1 - 0.2 - - - - - - -
16/03:00pm 27.0 SE 12 20 1016.2 - 0.2 - - - - - - -
16/02:30pm 26.2 SE 9 14 1016.5 - 0.2 - - - - - - -
16/02:00pm 26.3 S 10 16 1016.8 - 0.2 - - - - - - -
16/01:30pm 25.9 SE 12 22 1017.0 - 0.2 - - - - - - -

Other Formats:

Comma delimited format used in spreadsheet applications
http://www.bom.gov.au/fwo/IDQ60701/IDQ60701.94295.axf

JavaScript Object Notation format (JSON) in row-major order
http://www.bom.gov.au/fwo/IDQ60701/IDQ60701.94295.json